createdAt,value
2019-03-30T00:01:42.108Z,87.90
2019-03-30T00:04:10.397Z,87.60
2019-03-30T00:06:38.867Z,88.10
2019-03-30T00:09:07.351Z,87.40
2019-03-30T00:11:35.894Z,88.10
2019-03-30T00:14:04.211Z,86.20
2019-03-30T00:16:32.794Z,87.40
2019-03-30T00:19:01.277Z,86.50
2019-03-30T00:21:29.768Z,86.40
2019-03-30T00:23:58.447Z,86.60
2019-03-30T00:26:26.829Z,87.20
2019-03-30T00:28:55.428Z,86.20
2019-03-30T00:31:23.688Z,86.20
2019-03-30T00:33:52.171Z,86.00
2019-03-30T00:36:20.712Z,86.70
2019-03-30T00:38:49.138Z,87.40
2019-03-30T00:41:17.705Z,86.20
2019-03-30T00:43:46.312Z,84.30
2019-03-30T00:46:14.994Z,85.60
2019-03-30T00:48:43.166Z,85.10
2019-03-30T00:51:11.550Z,85.60
2019-03-30T00:53:40.032Z,85.30
2019-03-30T00:56:08.211Z,83.90
2019-03-30T00:58:36.600Z,84.60
2019-03-30T01:01:05.391Z,84.40
2019-03-30T01:03:33.715Z,83.70
2019-03-30T01:06:02.560Z,84.00
2019-03-30T01:08:31.128Z,85.10
2019-03-30T01:10:59.611Z,85.00
2019-03-30T01:13:31.225Z,83.80
2019-03-30T01:15:59.753Z,83.60
2019-03-30T01:18:28.341Z,83.40
2019-03-30T01:20:57.226Z,83.20
2019-03-30T01:23:26.034Z,83.80
2019-03-30T01:25:54.602Z,83.30
2019-03-30T01:28:22.895Z,83.20
2019-03-30T01:30:51.569Z,83.20
2019-03-30T01:33:20.058Z,82.70
2019-03-30T01:35:49.562Z,82.40
2019-03-30T01:38:17.933Z,82.30
2019-03-30T01:40:46.416Z,82.80
2019-03-30T01:43:14.796Z,83.30
2019-03-30T01:45:46.466Z,83.00
2019-03-30T01:48:14.845Z,82.80
2019-03-30T01:50:43.215Z,82.30
2019-03-30T01:53:12.000Z,82.40
2019-03-30T01:55:40.690Z,82.90
2019-03-30T01:58:09.169Z,82.90
2019-03-30T02:00:37.754Z,82.60
2019-03-30T02:03:06.134Z,82.80
2019-03-30T02:05:38.158Z,82.40
2019-03-30T02:08:06.788Z,82.20
2019-03-30T02:10:36.395Z,82.00
2019-03-30T02:13:04.876Z,81.90
2019-03-30T02:15:33.255Z,82.80
2019-03-30T02:18:01.555Z,81.90
2019-03-30T02:20:31.097Z,81.40
2019-03-30T02:22:59.731Z,81.50
2019-03-30T02:25:28.211Z,82.20
2019-03-30T02:27:57.105Z,82.00
2019-03-30T02:30:25.588Z,82.00
2019-03-30T02:32:53.968Z,81.90
2019-03-30T02:35:26.294Z,81.10
2019-03-30T02:37:52.568Z,81.00
2019-03-30T02:40:20.987Z,80.80
2019-03-30T02:42:49.332Z,80.40
2019-03-30T02:45:18.017Z,80.50
2019-03-30T02:47:46.511Z,81.20
2019-03-30T02:50:14.775Z,80.90
2019-03-30T02:52:43.154Z,81.40
2019-03-30T02:55:12.703Z,80.20
2019-03-30T02:57:41.451Z,80.30
2019-03-30T03:00:09.898Z,79.80
2019-03-30T03:02:39.692Z,79.50
2019-03-30T03:05:11.432Z,79.10
2019-03-30T03:07:43.906Z,78.50
2019-03-30T03:10:14.540Z,78.40
2019-03-30T03:12:43.213Z,79.00
2019-03-30T03:15:12.086Z,78.30
2019-03-30T03:17:40.584Z,78.70
2019-03-30T03:20:11.827Z,77.70
2019-03-30T03:22:43.892Z,78.00
2019-03-30T03:25:12.368Z,78.00
2019-03-30T03:27:40.958Z,77.70
2019-03-30T03:33:06.903Z,77.10
2019-03-30T03:35:35.594Z,76.80
2019-03-30T03:38:04.036Z,76.40
2019-03-30T03:40:49.963Z,76.80
2019-03-30T03:43:07.920Z,76.50
2019-03-30T03:45:36.480Z,76.70
2019-03-30T03:48:05.991Z,76.00
2019-03-30T03:50:34.880Z,74.10
2019-03-30T03:53:03.258Z,74.80
2019-03-30T03:55:35.387Z,74.50
2019-03-30T03:58:05.339Z,74.90
2019-03-30T04:00:37.082Z,74.30
2019-03-30T04:03:08.002Z,73.60
2019-03-30T04:05:35.398Z,73.20
2019-03-30T04:08:04.643Z,73.20
2019-03-30T04:10:33.288Z,72.40
2019-03-30T04:13:01.663Z,72.80
2019-03-30T04:15:30.045Z,72.20
2019-03-30T04:17:59.054Z,72.60
2019-03-30T04:20:27.611Z,72.70
2019-03-30T04:22:56.630Z,72.70
2019-03-30T04:25:26.127Z,72.70
2019-03-30T04:27:54.607Z,73.00
2019-03-30T04:30:23.397Z,72.70
2019-03-30T04:32:51.889Z,71.80
2019-03-30T04:35:20.357Z,72.20
2019-03-30T04:37:49.056Z,72.60
2019-03-30T04:43:06.190Z,72.20
2019-03-30T04:45:34.664Z,73.10
2019-03-30T04:48:03.260Z,72.90
2019-03-30T04:50:31.742Z,73.70
2019-03-30T04:53:00.423Z,73.90
2019-03-30T04:55:28.595Z,75.00
2019-03-30T04:57:57.717Z,75.00
2019-03-30T05:00:26.483Z,75.50
2019-03-30T05:02:57.933Z,74.30
2019-03-30T05:05:26.245Z,74.30
2019-03-30T05:07:54.695Z,74.10
2019-03-30T05:10:23.264Z,74.40
2019-03-30T05:12:51.966Z,74.20
2019-03-30T05:15:20.515Z,74.30
2019-03-30T05:17:52.588Z,74.50
2019-03-30T05:20:19.255Z,75.10
2019-03-30T05:22:47.431Z,75.40
2019-03-30T05:25:16.592Z,74.90
2019-03-30T05:27:45.337Z,74.50
2019-03-30T05:30:13.926Z,74.60
2019-03-30T05:32:42.387Z,74.60
2019-03-30T05:35:11.451Z,74.40
2019-03-30T05:37:39.877Z,74.40
2019-03-30T05:40:08.606Z,74.50
2019-03-30T05:42:37.687Z,74.60
2019-03-30T05:45:06.535Z,74.80
2019-03-30T05:47:35.941Z,74.90
2019-03-30T05:50:09.485Z,74.80
2019-03-30T05:52:38.351Z,74.30
2019-03-30T05:55:06.916Z,75.50
2019-03-30T05:57:35.510Z,74.60
2019-03-30T06:00:04.192Z,75.00
2019-03-30T06:02:32.634Z,75.20
2019-03-30T06:05:09.717Z,75.50
2019-03-30T06:07:50.232Z,75.60
2019-03-30T06:10:20.571Z,75.80
2019-03-30T06:12:49.298Z,75.60
2019-03-30T06:15:17.611Z,75.20
2019-03-30T06:17:46.194Z,75.10
2019-03-30T06:20:14.882Z,75.20
2019-03-30T06:22:45.762Z,75.20
2019-03-30T06:25:13.076Z,74.90
2019-03-30T06:27:41.562Z,74.60
2019-03-30T06:30:09.768Z,74.30
2019-03-30T06:32:38.117Z,74.30
2019-03-30T06:35:06.808Z,74.10
2019-03-30T06:37:35.489Z,74.20
2019-03-30T06:40:04.083Z,74.20
2019-03-30T06:42:32.524Z,74.10
2019-03-30T06:45:04.325Z,74.50
2019-03-30T06:47:32.558Z,74.50
2019-03-30T06:50:00.969Z,74.70
2019-03-30T06:52:29.357Z,74.40
2019-03-30T06:54:58.062Z,74.80
2019-03-30T06:57:26.622Z,74.80
2019-03-30T06:59:56.538Z,74.50
2019-03-30T07:02:24.921Z,74.20
2019-03-30T07:04:53.166Z,74.30
2019-03-30T07:07:21.501Z,74.10
2019-03-30T07:09:50.300Z,73.80
2019-03-30T07:12:18.755Z,73.90
2019-03-30T07:14:47.334Z,73.90
2019-03-30T07:17:18.788Z,74.10
2019-03-30T07:19:47.376Z,74.70
2019-03-30T07:22:16.055Z,73.80
2019-03-30T07:24:45.665Z,74.00
2019-03-30T07:27:13.942Z,74.50
2019-03-30T07:29:42.628Z,74.10
2019-03-30T07:32:11.216Z,73.80
2019-03-30T07:34:41.886Z,74.30
2019-03-30T07:37:10.441Z,74.40
2019-03-30T07:39:39.302Z,74.10
2019-03-30T07:42:08.114Z,74.00
2019-03-30T07:44:36.492Z,73.60
2019-03-30T07:47:05.149Z,74.30
2019-03-30T07:49:33.762Z,74.20
2019-03-30T07:52:03.294Z,73.90
2019-03-30T07:54:31.875Z,73.80
2019-03-30T07:57:07.067Z,73.00
2019-03-30T07:59:30.158Z,73.80
2019-03-30T08:01:58.734Z,73.90
2019-03-30T08:04:28.671Z,74.40
2019-03-30T08:06:56.829Z,74.80
2019-03-30T08:09:25.412Z,73.90
2019-03-30T08:11:53.792Z,74.50
2019-03-30T08:14:23.917Z,74.30
2019-03-30T08:16:52.223Z,74.20
2019-03-30T08:19:21.961Z,73.60
2019-03-30T08:21:50.444Z,73.70
2019-03-30T08:24:19.280Z,74.00
2019-03-30T08:26:50.201Z,73.80
2019-03-30T08:29:18.492Z,74.20
2019-03-30T08:31:49.920Z,74.10
2019-03-30T08:34:16.791Z,74.20
2019-03-30T08:36:45.111Z,74.10
2019-03-30T08:39:13.547Z,73.90
2019-03-30T08:41:41.931Z,73.80
2019-03-30T08:44:15.120Z,73.60
2019-03-30T08:46:43.601Z,74.40
2019-03-30T08:49:11.982Z,74.40
2019-03-30T08:51:40.567Z,74.20
2019-03-30T08:54:08.958Z,74.50
2019-03-30T08:56:37.443Z,74.20
2019-03-30T08:59:05.880Z,74.50
2019-03-30T09:01:34.275Z,74.60
2019-03-30T09:04:02.776Z,74.20
2019-03-30T09:06:31.465Z,74.70
2019-03-30T09:08:59.949Z,74.60
2019-03-30T09:11:28.121Z,74.20
2019-03-30T09:13:56.705Z,74.50
2019-03-30T09:16:25.085Z,75.00
2019-03-30T09:18:53.467Z,74.80
2019-03-30T09:21:21.899Z,75.10
2019-03-30T09:23:50.151Z,74.70
2019-03-30T09:26:19.629Z,74.90
2019-03-30T09:28:48.367Z,75.20
2019-03-30T09:31:16.797Z,75.80
2019-03-30T09:33:45.182Z,75.70
2019-03-30T09:36:13.461Z,75.70
2019-03-30T09:38:41.945Z,75.20
2019-03-30T09:41:11.493Z,75.20
2019-03-30T09:43:43.047Z,75.10
2019-03-30T09:46:16.092Z,75.70
2019-03-30T09:48:44.777Z,75.80
2019-03-30T09:51:12.853Z,75.30
2019-03-30T09:53:43.126Z,75.50
2019-03-30T09:56:12.987Z,75.80
2019-03-30T09:58:41.926Z,76.20
2019-03-30T10:01:14.096Z,75.70
2019-03-30T10:03:45.193Z,75.80
2019-03-30T10:06:13.886Z,76.20
2019-03-30T10:08:42.363Z,76.00
2019-03-30T10:11:10.640Z,76.00
2019-03-30T10:13:39.651Z,75.90
2019-03-30T10:16:08.223Z,76.20
2019-03-30T10:18:36.601Z,76.60
2019-03-30T10:21:04.984Z,76.40
2019-03-30T10:23:33.724Z,76.80
2019-03-30T10:26:03.185Z,77.10
2019-03-30T10:28:31.354Z,77.50
2019-03-30T10:31:02.587Z,77.40
2019-03-30T10:33:30.976Z,78.00
2019-03-30T10:35:59.458Z,77.70
2019-03-30T10:38:27.942Z,77.80
2019-03-30T10:40:57.038Z,78.30
2019-03-30T10:43:25.627Z,78.10
2019-03-30T10:45:54.722Z,78.00
2019-03-30T10:48:22.898Z,78.00
2019-03-30T10:50:52.603Z,78.50
2019-03-30T10:53:22.234Z,78.30
2019-03-30T10:55:50.607Z,78.20
2019-03-30T10:58:18.971Z,78.90
2019-03-30T11:00:47.062Z,79.00
2019-03-30T11:03:17.220Z,79.30
2019-03-30T11:05:45.574Z,79.20
2019-03-30T11:08:17.124Z,79.10
2019-03-30T11:10:45.274Z,79.00
2019-03-30T11:13:13.660Z,79.10
2019-03-30T11:15:42.036Z,79.90
2019-03-30T11:18:11.707Z,79.50
2019-03-30T11:20:40.040Z,79.50
2019-03-30T11:23:10.216Z,79.80
2019-03-30T11:25:39.345Z,79.80
2019-03-30T11:28:08.900Z,79.80
2019-03-30T11:30:37.558Z,79.90
2019-03-30T11:33:06.021Z,79.60
2019-03-30T11:35:34.630Z,80.20
2019-03-30T11:38:03.395Z,79.70
2019-03-30T11:40:31.778Z,80.40
2019-03-30T11:43:00.260Z,80.70
2019-03-30T11:45:29.972Z,79.90
2019-03-30T11:47:58.146Z,80.00
2019-03-30T11:50:26.947Z,80.70
2019-03-30T11:52:58.495Z,80.40
2019-03-30T11:55:26.865Z,80.50
2019-03-30T11:57:55.149Z,80.40
2019-03-30T12:00:23.918Z,80.20
2019-03-30T12:02:52.421Z,80.00
2019-03-30T12:05:20.589Z,79.90
2019-03-30T12:07:48.970Z,80.00
2019-03-30T12:10:18.373Z,79.70
2019-03-30T12:12:46.672Z,80.00
2019-03-30T12:15:15.034Z,80.10
2019-03-30T12:17:43.514Z,80.20
2019-03-30T12:20:12.556Z,80.30
2019-03-30T12:22:42.655Z,80.40
2019-03-30T12:25:10.709Z,80.60
2019-03-30T12:27:42.573Z,80.00
2019-03-30T12:30:10.841Z,80.40
2019-03-30T12:32:39.117Z,80.50
2019-03-30T12:35:07.504Z,81.10
2019-03-30T12:37:36.083Z,80.60
2019-03-30T12:40:04.715Z,80.90
2019-03-30T12:42:33.255Z,81.20
2019-03-30T12:45:01.944Z,81.20
2019-03-30T12:47:31.338Z,81.00
2019-03-30T12:50:03.219Z,81.20
2019-03-30T12:52:34.049Z,81.20
2019-03-30T12:55:02.431Z,80.80
2019-03-30T12:57:30.873Z,80.90
2019-03-30T12:59:59.397Z,80.90
2019-03-30T13:02:30.708Z,81.10
2019-03-30T13:04:58.916Z,80.80
2019-03-30T13:07:30.329Z,80.50
2019-03-30T13:10:00.464Z,81.50
2019-03-30T13:12:28.185Z,82.80
2019-03-30T13:14:56.737Z,83.40
2019-03-30T13:17:25.284Z,82.90
2019-03-30T13:19:53.801Z,83.40
2019-03-30T13:22:22.258Z,84.50
2019-03-30T13:24:51.073Z,82.70
2019-03-30T13:27:19.556Z,83.10
2019-03-30T13:29:48.141Z,84.30
2019-03-30T13:32:18.612Z,84.50
2019-03-30T13:34:46.727Z,85.00
2019-03-30T13:37:15.025Z,85.90
2019-03-30T13:39:43.502Z,84.50
2019-03-30T13:42:11.984Z,86.50
2019-03-30T13:44:47.945Z,85.00
2019-03-30T13:47:16.427Z,85.60
2019-03-30T13:49:46.340Z,85.50
2019-03-30T13:52:14.627Z,85.70
2019-03-30T13:54:43.215Z,85.60
2019-03-30T13:57:12.588Z,86.50
2019-03-30T13:59:43.462Z,86.90
2019-03-30T14:02:14.899Z,85.50
2019-03-30T14:04:43.284Z,85.30
2019-03-30T14:07:11.556Z,85.10
2019-03-30T14:09:39.935Z,85.40
2019-03-30T14:12:08.419Z,85.90
2019-03-30T14:14:37.009Z,86.20
2019-03-30T14:17:05.343Z,87.70
2019-03-30T14:19:34.888Z,86.10
2019-03-30T14:22:07.487Z,86.20
2019-03-30T14:24:35.953Z,86.30
2019-03-30T14:27:04.378Z,85.80
2019-03-30T14:29:35.145Z,87.00
2019-03-30T14:32:03.243Z,86.20
2019-03-30T14:34:31.830Z,86.60
2019-03-30T14:37:00.140Z,86.60
2019-03-30T14:39:28.483Z,87.70
2019-03-30T14:41:56.962Z,86.50
2019-03-30T14:44:25.348Z,86.50
2019-03-30T14:46:55.062Z,86.40
2019-03-30T14:49:25.270Z,86.40
2019-03-30T14:51:53.312Z,85.70
2019-03-30T14:57:09.788Z,85.80
2019-03-30T14:59:38.050Z,85.90
2019-03-30T15:02:07.674Z,85.50
2019-03-30T15:04:36.183Z,85.90
2019-03-30T15:11:58.821Z,82.70
2019-03-30T15:14:27.408Z,80.30
2019-03-30T15:16:56.708Z,78.90
2019-03-30T15:19:25.266Z,78.20
2019-03-30T15:21:56.561Z,78.50
2019-03-30T15:24:26.222Z,78.10
2019-03-30T15:27:00.290Z,78.00
2019-03-30T15:29:24.035Z,78.30
2019-03-30T15:31:53.439Z,77.70
2019-03-30T15:34:21.885Z,77.60
2019-03-30T15:36:50.202Z,77.40
2019-03-30T15:39:18.375Z,77.60
2019-03-30T15:41:47.072Z,77.10
2019-03-30T15:44:15.458Z,78.10
2019-03-30T15:46:45.273Z,78.20
2019-03-30T15:49:13.736Z,77.60
2019-03-30T15:51:42.013Z,77.10
2019-03-30T15:54:10.307Z,76.60
2019-03-30T15:56:42.788Z,76.30
2019-03-30T15:59:11.149Z,76.50
2019-03-30T16:01:40.562Z,76.10
2019-03-30T16:04:10.378Z,76.10
2019-03-30T16:06:38.645Z,76.30
2019-03-30T16:09:07.023Z,75.80
2019-03-30T16:11:43.083Z,75.90
2019-03-30T16:14:15.203Z,75.90
2019-03-30T16:16:43.591Z,76.10
2019-03-30T16:19:12.218Z,76.30
2019-03-30T16:21:40.702Z,76.40
2019-03-30T16:24:09.283Z,77.30
2019-03-30T16:26:42.221Z,76.80
2019-03-30T16:29:08.296Z,76.80
2019-03-30T16:31:36.985Z,77.00
2019-03-30T16:34:05.366Z,77.10
2019-03-30T16:36:33.852Z,77.20
2019-03-30T16:39:02.330Z,77.30
2019-03-30T16:41:32.367Z,77.30
2019-03-30T16:44:00.728Z,77.50
2019-03-30T16:46:29.086Z,77.50
2019-03-30T16:48:58.613Z,77.60
2019-03-30T16:51:26.890Z,77.80
2019-03-30T16:53:55.579Z,77.80
2019-03-30T16:56:24.882Z,77.80
2019-03-30T16:58:53.273Z,77.80
2019-03-30T17:01:21.847Z,78.00
2019-03-30T17:03:55.558Z,78.20
2019-03-30T17:06:24.238Z,78.10
2019-03-30T17:08:52.719Z,78.20
2019-03-30T17:11:21.203Z,78.20
2019-03-30T17:13:50.434Z,78.10
2019-03-30T17:16:18.984Z,78.10
2019-03-30T17:18:49.280Z,78.10
2019-03-30T17:21:17.486Z,78.30
2019-03-30T17:23:46.236Z,78.10
2019-03-30T17:26:14.455Z,78.20
2019-03-30T17:28:42.958Z,78.10
2019-03-30T17:31:12.504Z,78.20
2019-03-30T17:33:40.920Z,78.20
2019-03-30T17:36:09.403Z,78.20
2019-03-30T17:38:38.090Z,78.40
2019-03-30T17:41:06.470Z,78.50
2019-03-30T17:43:35.058Z,78.50
2019-03-30T17:46:03.514Z,78.70
2019-03-30T17:48:31.917Z,78.70
2019-03-30T17:51:00.299Z,78.80
2019-03-30T17:53:28.679Z,78.80
2019-03-30T17:55:57.160Z,79.00
2019-03-30T17:58:25.336Z,79.00
2019-03-30T18:00:54.027Z,79.00
2019-03-30T18:03:22.301Z,79.00
2019-03-30T18:05:50.885Z,79.10
2019-03-30T18:08:19.366Z,79.10
2019-03-30T18:10:47.810Z,79.00
2019-03-30T18:13:16.331Z,79.00
2019-03-30T18:15:44.819Z,79.30
2019-03-30T18:18:13.091Z,79.40
2019-03-30T18:20:41.679Z,79.20
2019-03-30T18:23:10.367Z,79.40
2019-03-30T18:25:39.152Z,79.40
2019-03-30T18:28:07.740Z,79.40
2019-03-30T18:30:36.123Z,79.50
2019-03-30T18:33:04.498Z,79.60
2019-03-30T18:35:33.085Z,79.60
2019-03-30T18:38:01.426Z,79.50
2019-03-30T18:40:29.745Z,79.50
2019-03-30T18:42:58.119Z,79.50
2019-03-30T18:45:26.621Z,79.50
2019-03-30T18:47:55.012Z,79.60
2019-03-30T18:50:23.465Z,79.60
2019-03-30T18:52:52.052Z,79.50
2019-03-30T18:55:20.328Z,79.40
2019-03-30T18:57:49.221Z,79.40
2019-03-30T19:00:17.905Z,79.60
2019-03-30T19:02:46.292Z,79.60
2019-03-30T19:05:14.767Z,79.60
2019-03-30T19:07:43.048Z,79.60
2019-03-30T19:10:11.531Z,79.60
2019-03-30T19:12:40.113Z,79.70
2019-03-30T19:15:08.596Z,79.60
2019-03-30T19:17:36.978Z,79.60
2019-03-30T19:20:07.831Z,79.60
2019-03-30T19:22:36.090Z,79.70
2019-03-30T19:25:04.367Z,79.70
2019-03-30T19:27:33.004Z,79.70
2019-03-30T19:30:01.231Z,79.70
2019-03-30T19:32:30.840Z,79.80
2019-03-30T19:34:59.074Z,79.80
2019-03-30T19:37:27.499Z,79.90
2019-03-30T19:39:55.883Z,79.80
2019-03-30T19:42:24.052Z,79.80
2019-03-30T19:44:52.330Z,79.80
2019-03-30T19:47:20.811Z,79.90
2019-03-30T19:49:49.500Z,79.80
2019-03-30T19:52:17.469Z,79.90
2019-03-30T19:54:45.774Z,80.00
2019-03-30T19:57:14.305Z,80.00
2019-03-30T19:59:42.618Z,80.10
2019-03-30T20:02:10.989Z,80.20
2019-03-30T20:04:39.844Z,80.20
2019-03-30T20:07:08.374Z,80.30
2019-03-30T20:09:36.955Z,80.40
2019-03-30T20:12:05.869Z,80.60
2019-03-30T20:14:34.221Z,80.80
2019-03-30T20:17:02.497Z,80.90
2019-03-30T20:19:31.083Z,81.00
2019-03-30T20:22:00.282Z,81.30
2019-03-30T20:24:28.661Z,81.20
2019-03-30T20:26:56.821Z,81.30
2019-03-30T20:29:25.926Z,81.30
2019-03-30T20:31:54.348Z,81.40
2019-03-30T20:34:22.856Z,81.30
2019-03-30T20:36:51.280Z,81.30
2019-03-30T20:39:19.666Z,81.30
2019-03-30T20:41:48.344Z,81.30
2019-03-30T20:44:16.773Z,81.50
2019-03-30T20:46:45.208Z,81.70
2019-03-30T20:49:13.752Z,81.60
2019-03-30T20:51:42.069Z,81.80
2019-03-30T20:54:10.552Z,81.90
2019-03-30T20:56:38.933Z,82.00
2019-03-30T20:59:07.415Z,82.20
2019-03-30T21:01:38.265Z,82.20
2019-03-30T21:04:05.506Z,82.20
2019-03-30T21:06:33.886Z,82.40
2019-03-30T21:09:02.288Z,82.50
2019-03-30T21:11:32.180Z,82.50
2019-03-30T21:14:00.662Z,82.40
2019-03-30T21:16:29.659Z,82.50
2019-03-30T21:18:58.040Z,82.30
2019-03-30T21:21:26.523Z,82.30
2019-03-30T21:23:54.899Z,82.20
2019-03-30T21:26:23.279Z,82.10
2019-03-30T21:28:51.763Z,82.20
2019-03-30T21:31:20.245Z,82.20
2019-03-30T21:33:49.647Z,82.30
2019-03-30T21:36:17.788Z,82.20
2019-03-30T21:38:46.099Z,82.10
2019-03-30T21:41:14.480Z,82.00
2019-03-30T21:43:42.975Z,82.00
2019-03-30T21:46:11.548Z,82.00
2019-03-30T21:48:39.721Z,81.90
2019-03-30T21:51:08.204Z,82.00
2019-03-30T21:53:36.585Z,82.00
2019-03-30T21:56:05.374Z,82.00
2019-03-30T21:58:34.679Z,82.20
2019-03-30T22:01:03.163Z,82.60
2019-03-30T22:03:31.641Z,82.90
2019-03-30T22:06:00.229Z,82.80
2019-03-30T22:08:28.731Z,82.80
2019-03-30T22:10:57.089Z,82.90
2019-03-30T22:13:25.469Z,83.00
2019-03-30T22:15:53.960Z,83.10
2019-03-30T22:18:22.228Z,83.30
2019-03-30T22:20:50.920Z,83.10
2019-03-30T22:23:19.294Z,83.10
2019-03-30T22:25:47.781Z,82.90
2019-03-30T22:28:16.465Z,82.80
2019-03-30T22:30:44.983Z,82.70
2019-03-30T22:33:13.633Z,82.70
2019-03-30T22:35:41.911Z,82.70
2019-03-30T22:38:10.598Z,82.60
2019-03-30T22:40:41.448Z,82.60
2019-03-30T22:43:08.382Z,83.30
2019-03-30T22:45:36.863Z,82.60
2019-03-30T22:48:05.244Z,82.60
2019-03-30T22:50:33.730Z,82.50
2019-03-30T22:53:02.233Z,82.60
2019-03-30T22:55:30.795Z,82.60
2019-03-30T22:57:59.174Z,82.50
2019-03-30T23:00:38.238Z,82.50
2019-03-30T23:02:59.108Z,82.60
2019-03-30T23:05:27.388Z,83.10
2019-03-30T23:07:55.867Z,82.70
2019-03-30T23:10:24.457Z,82.70
2019-03-30T23:12:53.023Z,82.70
2019-03-30T23:15:21.622Z,82.70
2019-03-30T23:17:50.007Z,82.70
2019-03-30T23:20:19.513Z,82.80
2019-03-30T23:22:47.996Z,82.80
2019-03-30T23:25:16.373Z,82.90
2019-03-30T23:27:45.061Z,82.80
2019-03-30T23:30:13.337Z,82.80
2019-03-30T23:32:41.821Z,82.70
2019-03-30T23:35:10.307Z,82.80
2019-03-30T23:37:38.786Z,82.80
2019-03-30T23:40:07.374Z,82.80
2019-03-30T23:42:36.778Z,83.00
2019-03-30T23:45:05.311Z,83.20
2019-03-30T23:47:34.350Z,83.40
2019-03-30T23:50:02.844Z,83.40
2019-03-30T23:52:31.315Z,83.40
2019-03-30T23:54:59.804Z,83.40
2019-03-30T23:57:28.285Z,83.30
2019-03-30T23:59:56.558Z,83.30
